createdAt,value
2023-01-08T00:01:44.098Z,50.17
2023-01-08T00:04:10.796Z,49.98
2023-01-08T00:06:37.271Z,50.08
2023-01-08T00:09:03.714Z,50.14
2023-01-08T00:11:31.377Z,49.93
2023-01-08T00:13:57.695Z,49.92
2023-01-08T00:16:24.084Z,50.07
2023-01-08T00:18:50.432Z,49.80
2023-01-08T00:21:16.783Z,49.84
2023-01-08T00:23:43.092Z,50.06
2023-01-08T00:26:10.020Z,49.90
2023-01-08T00:28:38.054Z,49.84
2023-01-08T00:31:04.674Z,49.85
2023-01-08T00:33:31.134Z,50.03
2023-01-08T00:35:57.430Z,49.99
2023-01-08T00:38:25.503Z,49.95
2023-01-08T00:40:51.812Z,50.01
2023-01-08T00:43:18.155Z,49.97
2023-01-08T00:45:45.734Z,49.82
2023-01-08T00:48:12.116Z,49.93
2023-01-08T00:50:38.510Z,49.80
2023-01-08T00:53:04.828Z,49.93
2023-01-08T00:55:31.152Z,49.94
2023-01-08T00:57:57.454Z,49.87
2023-01-08T01:00:23.966Z,49.83
2023-01-08T01:02:51.701Z,49.86
2023-01-08T01:05:18.017Z,49.74
2023-01-08T01:07:44.862Z,49.85
2023-01-08T01:10:12.527Z,49.85
2023-01-08T01:12:39.130Z,49.85
2023-01-08T01:15:06.237Z,49.65
2023-01-08T01:17:32.554Z,49.81
2023-01-08T01:20:00.140Z,49.69
2023-01-08T01:22:26.471Z,49.71
2023-01-08T01:24:52.765Z,49.80
2023-01-08T01:27:19.102Z,49.66
2023-01-08T01:29:45.352Z,49.66
2023-01-08T01:32:11.782Z,49.61
2023-01-08T01:34:38.124Z,49.82
2023-01-08T01:37:05.718Z,49.75
2023-01-08T01:39:32.083Z,49.65
2023-01-08T01:41:58.486Z,49.66
2023-01-08T01:44:34.697Z,49.69
2023-01-08T01:47:02.771Z,49.89
2023-01-08T01:49:29.599Z,49.74
2023-01-08T01:51:57.963Z,49.69
2023-01-08T01:54:25.663Z,49.65
2023-01-08T01:56:52.077Z,49.71
2023-01-08T01:59:18.393Z,49.79
2023-01-08T02:01:45.650Z,49.61
2023-01-08T02:04:12.609Z,49.72
2023-01-08T02:06:42.207Z,49.78
2023-01-08T02:09:12.843Z,49.65
2023-01-08T02:11:45.217Z,49.86
2023-01-08T02:14:16.343Z,49.68
2023-01-08T02:16:47.605Z,49.87
2023-01-08T02:19:16.483Z,49.92
2023-01-08T02:21:49.537Z,49.64
2023-01-08T02:24:20.157Z,49.68
2023-01-08T02:26:48.097Z,49.70
2023-01-08T02:29:15.511Z,49.65
2023-01-08T02:31:43.207Z,49.75
2023-01-08T02:34:10.240Z,49.58
2023-01-08T02:36:38.715Z,49.75
2023-01-08T02:39:14.901Z,49.72
2023-01-08T02:41:48.364Z,49.65
2023-01-08T02:44:18.452Z,49.55
2023-01-08T02:46:44.781Z,49.57
2023-01-08T02:49:13.623Z,49.64
2023-01-08T02:51:42.300Z,49.63
2023-01-08T02:54:11.147Z,49.42
2023-01-08T02:56:40.075Z,49.48
2023-01-08T02:59:07.202Z,49.41
2023-01-08T03:01:35.282Z,49.51
2023-01-08T03:04:03.902Z,49.21
2023-01-08T03:06:30.577Z,49.37
2023-01-08T03:08:57.819Z,49.44
2023-01-08T03:11:26.108Z,49.37
2023-01-08T03:13:56.072Z,49.42
2023-01-08T03:16:25.595Z,49.26
2023-01-08T03:18:57.404Z,49.34
2023-01-08T03:21:23.929Z,49.26
2023-01-08T03:23:50.682Z,49.22
2023-01-08T03:26:20.127Z,49.30
2023-01-08T03:28:48.188Z,49.34
2023-01-08T03:31:15.843Z,49.19
2023-01-08T03:33:42.990Z,49.39
2023-01-08T03:36:13.496Z,49.13
2023-01-08T03:38:42.292Z,49.27
2023-01-08T03:41:10.754Z,49.37
2023-01-08T03:43:37.067Z,49.26
2023-01-08T03:46:05.721Z,49.16
2023-01-08T03:48:33.926Z,49.11
2023-01-08T03:51:00.290Z,49.20
2023-01-08T03:53:28.432Z,49.18
2023-01-08T03:55:55.145Z,49.18
2023-01-08T03:58:21.454Z,49.25
2023-01-08T04:00:47.794Z,49.18
2023-01-08T04:03:14.101Z,49.07
2023-01-08T04:05:40.433Z,49.21
2023-01-08T04:08:06.754Z,49.00
2023-01-08T04:10:34.329Z,49.14
2023-01-08T04:13:00.666Z,49.14
2023-01-08T04:15:27.010Z,49.05
2023-01-08T04:17:53.780Z,49.27
2023-01-08T04:20:20.210Z,49.17
2023-01-08T04:22:46.544Z,48.97
2023-01-08T04:25:12.860Z,48.99
2023-01-08T04:27:40.495Z,49.12
2023-01-08T04:30:07.200Z,49.08
2023-01-08T04:32:33.497Z,49.17
2023-01-08T04:34:59.821Z,48.94
2023-01-08T04:37:26.105Z,48.99
2023-01-08T04:39:52.430Z,49.03
2023-01-08T04:42:18.761Z,48.94
2023-01-08T04:44:46.375Z,49.02
2023-01-08T04:47:12.674Z,48.90
2023-01-08T04:49:39.077Z,48.97
2023-01-08T04:52:05.530Z,49.05
2023-01-08T04:54:32.130Z,49.10
2023-01-08T04:56:58.433Z,48.93
2023-01-08T04:59:24.727Z,48.91
2023-01-08T05:01:52.588Z,48.90
2023-01-08T05:04:19.022Z,48.93
2023-01-08T05:06:45.320Z,48.96
2023-01-08T05:09:11.633Z,48.97
2023-01-08T05:11:37.951Z,48.82
2023-01-08T05:14:04.336Z,48.89
2023-01-08T05:16:30.625Z,48.95
2023-01-08T05:18:58.295Z,48.87
2023-01-08T05:21:24.961Z,49.11
2023-01-08T05:23:51.347Z,48.98
2023-01-08T05:26:17.698Z,48.98
2023-01-08T05:28:44.166Z,48.99
2023-01-08T05:31:10.515Z,48.98
2023-01-08T05:33:37.188Z,48.88
2023-01-08T05:36:05.811Z,48.89
2023-01-08T05:38:32.078Z,48.92
2023-01-08T05:40:58.404Z,49.05
2023-01-08T05:43:24.857Z,49.12
2023-01-08T05:45:51.180Z,48.92
2023-01-08T05:48:17.538Z,48.81
2023-01-08T05:50:43.873Z,48.83
2023-01-08T05:53:12.108Z,48.91
2023-01-08T05:55:38.485Z,49.08
2023-01-08T05:58:05.212Z,49.16
2023-01-08T06:00:32.283Z,49.00
2023-01-08T06:02:58.709Z,49.00
2023-01-08T06:05:25.412Z,48.83
2023-01-08T06:07:51.726Z,48.90
2023-01-08T06:10:19.329Z,48.84
2023-01-08T06:12:45.675Z,48.96
2023-01-08T06:15:12.381Z,49.11
2023-01-08T06:17:38.688Z,49.13
2023-01-08T06:20:05.467Z,48.88
2023-01-08T06:22:33.493Z,49.15
2023-01-08T06:25:00.054Z,48.94
2023-01-08T06:27:27.761Z,49.10
2023-01-08T06:29:54.067Z,48.90
2023-01-08T06:32:20.417Z,49.02
2023-01-08T06:34:46.755Z,49.13
2023-01-08T06:37:13.012Z,49.12
2023-01-08T06:39:39.364Z,49.00
2023-01-08T06:42:05.748Z,48.84
2023-01-08T06:44:33.337Z,48.96
2023-01-08T06:46:59.591Z,49.03
2023-01-08T06:49:25.901Z,48.95
2023-01-08T06:51:52.222Z,49.05
2023-01-08T06:54:18.598Z,48.91
2023-01-08T06:56:53.740Z,49.12
2023-01-08T06:59:21.191Z,49.12
2023-01-08T07:01:49.118Z,49.13
2023-01-08T07:04:15.559Z,49.16
2023-01-08T07:06:41.841Z,49.23
2023-01-08T07:09:10.836Z,48.91
2023-01-08T07:11:37.157Z,48.89
2023-01-08T07:14:03.419Z,49.21
2023-01-08T07:16:29.794Z,48.94
2023-01-08T07:18:57.533Z,48.91
2023-01-08T07:21:23.874Z,49.06
2023-01-08T07:23:50.242Z,48.97
2023-01-08T07:26:16.628Z,49.01
2023-01-08T07:28:43.478Z,49.09
2023-01-08T07:31:10.348Z,48.98
2023-01-08T07:33:36.699Z,49.11
2023-01-08T07:36:04.462Z,48.90
2023-01-08T07:38:30.867Z,48.99
2023-01-08T07:40:57.229Z,48.96
2023-01-08T07:43:23.581Z,49.02
2023-01-08T07:45:49.877Z,49.30
2023-01-08T07:48:16.175Z,49.05
2023-01-08T07:50:42.999Z,49.05
2023-01-08T07:53:11.055Z,48.68
2023-01-08T07:55:37.414Z,48.86
2023-01-08T07:58:07.364Z,48.71
2023-01-08T08:00:33.749Z,49.02
2023-01-08T08:03:02.224Z,48.79
2023-01-08T08:05:28.570Z,48.82
2023-01-08T08:07:54.917Z,48.89
2023-01-08T08:10:22.459Z,48.79
2023-01-08T08:12:48.795Z,48.70
2023-01-08T08:15:15.126Z,49.13
2023-01-08T08:17:44.150Z,48.84
2023-01-08T08:20:10.797Z,48.97
2023-01-08T08:22:37.187Z,49.00
2023-01-08T08:25:03.640Z,48.78
2023-01-08T08:27:31.257Z,48.72
2023-01-08T08:29:57.536Z,49.03
2023-01-08T08:32:23.922Z,48.80
2023-01-08T08:34:50.411Z,48.85
2023-01-08T08:37:16.697Z,48.89
2023-01-08T08:39:43.013Z,48.89
2023-01-08T08:42:09.336Z,49.03
2023-01-08T08:44:36.941Z,48.89
2023-01-08T08:47:06.292Z,48.80
2023-01-08T08:49:32.553Z,48.72
2023-01-08T08:51:58.856Z,48.74
2023-01-08T08:54:25.188Z,48.73
2023-01-08T08:56:51.466Z,48.96
2023-01-08T08:59:17.740Z,49.18
2023-01-08T09:01:45.480Z,48.74
2023-01-08T09:04:11.938Z,48.85
2023-01-08T09:06:38.391Z,48.87
2023-01-08T09:09:04.727Z,48.79
2023-01-08T09:11:31.154Z,48.94
2023-01-08T09:13:57.422Z,48.95
2023-01-08T09:16:23.782Z,48.90
2023-01-08T09:18:51.378Z,48.92
2023-01-08T09:21:17.692Z,48.96
2023-01-08T09:23:43.997Z,48.64
2023-01-08T09:26:10.270Z,48.97
2023-01-08T09:28:36.590Z,48.67
2023-01-08T09:31:03.494Z,48.88
2023-01-08T09:33:30.273Z,48.73
2023-01-08T09:35:58.025Z,48.84
2023-01-08T09:38:24.406Z,48.89
2023-01-08T09:40:53.302Z,48.83
2023-01-08T09:43:20.848Z,49.02
2023-01-08T09:45:49.904Z,48.82
2023-01-08T09:48:17.247Z,48.85
2023-01-08T09:50:43.698Z,49.05
2023-01-08T09:53:12.968Z,48.80
2023-01-08T09:55:39.311Z,48.87
2023-01-08T09:58:08.714Z,48.82
2023-01-08T10:00:35.099Z,49.10
2023-01-08T10:03:01.513Z,49.04
2023-01-08T10:05:28.329Z,48.88
2023-01-08T10:07:54.712Z,49.10
2023-01-08T10:10:25.587Z,48.84
2023-01-08T10:12:52.740Z,49.10
2023-01-08T10:15:20.176Z,48.85
2023-01-08T10:17:49.324Z,48.87
2023-01-08T10:20:16.856Z,49.02
2023-01-08T10:22:43.191Z,48.79
2023-01-08T10:25:10.862Z,49.02
2023-01-08T10:27:46.137Z,48.91
2023-01-08T10:30:15.492Z,48.92
2023-01-08T10:32:46.518Z,49.13
2023-01-08T10:35:16.337Z,49.10
2023-01-08T10:37:43.033Z,49.11
2023-01-08T10:40:21.950Z,48.98
2023-01-08T10:42:50.888Z,49.10
2023-01-08T10:45:20.035Z,49.08
2023-01-08T10:47:48.068Z,49.08
2023-01-08T10:50:19.777Z,49.02
2023-01-08T10:52:51.675Z,49.19
2023-01-08T10:55:21.742Z,49.12
2023-01-08T10:57:54.622Z,49.00
2023-01-08T11:00:22.834Z,49.22
2023-01-08T11:02:49.264Z,49.22
2023-01-08T11:05:15.805Z,48.95
2023-01-08T11:07:42.549Z,49.16
2023-01-08T11:10:21.642Z,49.03
2023-01-08T11:12:48.013Z,49.11
2023-01-08T11:15:28.475Z,49.18
2023-01-08T11:17:54.815Z,49.08
2023-01-08T11:20:22.143Z,49.05
2023-01-08T11:22:48.479Z,49.27
2023-01-08T11:25:19.648Z,48.94
2023-01-08T11:27:46.578Z,49.32
2023-01-08T11:30:15.283Z,49.28
2023-01-08T11:32:46.088Z,49.14
2023-01-08T11:35:15.039Z,49.30
2023-01-08T11:37:43.424Z,49.26
2023-01-08T11:40:14.516Z,49.11
2023-01-08T11:42:52.723Z,49.07
2023-01-08T11:45:25.554Z,49.43
2023-01-08T11:48:01.364Z,49.12
2023-01-08T11:50:28.879Z,49.16
2023-01-08T11:53:03.734Z,49.29
2023-01-08T11:55:37.972Z,49.10
2023-01-08T11:58:13.296Z,49.10
2023-01-08T12:00:54.139Z,49.47
2023-01-08T12:03:28.705Z,49.13
2023-01-08T12:06:02.721Z,49.35
2023-01-08T12:08:32.227Z,49.35
2023-01-08T12:11:03.055Z,49.24
2023-01-08T12:13:43.179Z,49.22
2023-01-08T12:16:18.908Z,49.20
2023-01-08T12:18:53.078Z,49.39
2023-01-08T12:21:24.355Z,49.03
2023-01-08T12:24:00.169Z,49.29
2023-01-08T12:26:29.261Z,49.14
2023-01-08T12:29:07.036Z,49.20
2023-01-08T12:31:46.359Z,49.18
2023-01-08T12:34:18.608Z,49.22
2023-01-08T12:36:47.325Z,49.32
2023-01-08T12:39:18.369Z,49.37
2023-01-08T12:41:45.743Z,49.30
2023-01-08T12:44:12.177Z,49.23
2023-01-08T12:46:41.831Z,49.43
2023-01-08T12:49:10.980Z,49.17
2023-01-08T12:51:40.592Z,49.28
2023-01-08T12:54:11.213Z,48.94
2023-01-08T12:56:43.017Z,49.01
2023-01-08T12:59:15.444Z,49.09
2023-01-08T13:01:46.893Z,49.13
2023-01-08T13:04:13.346Z,49.25
2023-01-08T13:06:50.450Z,49.13
2023-01-08T13:09:21.727Z,49.13
2023-01-08T13:11:50.925Z,49.07
2023-01-08T13:14:17.372Z,48.95
2023-01-08T13:16:45.310Z,49.01
2023-01-08T13:19:23.316Z,49.09
2023-01-08T13:21:53.019Z,49.06
2023-01-08T13:24:23.488Z,49.00
2023-01-08T13:26:49.815Z,49.00
2023-01-08T13:29:25.535Z,49.00
2023-01-08T13:31:52.326Z,48.94
2023-01-08T13:34:20.474Z,49.15
2023-01-08T13:36:56.632Z,49.14
2023-01-08T13:39:23.796Z,49.08
2023-01-08T13:41:59.070Z,48.99
2023-01-08T13:44:27.263Z,49.19
2023-01-08T13:46:54.443Z,49.05
2023-01-08T13:49:26.027Z,48.91
2023-01-08T13:51:52.800Z,49.05
2023-01-08T13:54:21.891Z,48.94
2023-01-08T13:56:53.864Z,49.01
2023-01-08T13:59:25.857Z,49.28
2023-01-08T14:01:53.136Z,49.16
2023-01-08T14:04:20.325Z,49.04
2023-01-08T14:06:46.632Z,49.14
2023-01-08T14:09:18.780Z,49.17
2023-01-08T14:11:47.513Z,49.23
2023-01-08T14:14:14.724Z,49.21
2023-01-08T14:16:41.444Z,49.33
2023-01-08T14:19:08.195Z,49.21
2023-01-08T14:21:34.735Z,49.34
2023-01-08T14:24:01.176Z,49.47
2023-01-08T14:26:29.274Z,49.18
2023-01-08T14:28:57.050Z,49.34
2023-01-08T14:31:24.557Z,49.29
2023-01-08T14:33:53.199Z,49.15
2023-01-08T14:36:20.173Z,49.07
2023-01-08T14:38:46.624Z,49.08
2023-01-08T14:41:14.215Z,49.14
2023-01-08T14:43:42.856Z,49.14
2023-01-08T14:46:14.934Z,49.17
2023-01-08T14:48:42.971Z,48.97
2023-01-08T14:51:10.850Z,49.25
2023-01-08T14:53:39.280Z,49.21
2023-01-08T14:56:06.619Z,49.12
2023-01-08T14:58:35.101Z,49.01
2023-01-08T15:01:02.897Z,49.20
2023-01-08T15:03:31.992Z,49.10
2023-01-08T15:05:58.323Z,49.02
2023-01-08T15:08:25.728Z,49.19
2023-01-08T15:10:57.453Z,49.29
2023-01-08T15:13:25.184Z,49.06
2023-01-08T15:15:54.528Z,49.13
2023-01-08T15:18:20.872Z,48.96
2023-01-08T15:20:48.580Z,49.28
2023-01-08T15:23:24.784Z,49.31
2023-01-08T15:25:52.056Z,49.32
2023-01-08T15:28:18.931Z,49.06
2023-01-08T15:30:46.183Z,49.25
2023-01-08T15:33:18.197Z,49.29
2023-01-08T15:35:44.549Z,49.37
2023-01-08T15:38:12.131Z,49.31
2023-01-08T15:40:38.418Z,49.40
2023-01-08T15:43:04.812Z,49.53
2023-01-08T15:45:31.171Z,49.50
2023-01-08T15:47:57.512Z,49.45
2023-01-08T15:50:24.549Z,49.32
2023-01-08T15:52:50.887Z,49.39
2023-01-08T15:55:20.033Z,49.49
2023-01-08T15:57:46.468Z,49.41
2023-01-08T16:00:13.864Z,49.47
2023-01-08T16:02:40.994Z,49.29
2023-01-08T16:05:07.639Z,49.32
2023-01-08T16:07:33.934Z,49.61
2023-01-08T16:10:00.242Z,49.45
2023-01-08T16:12:27.918Z,49.60
2023-01-08T16:14:54.203Z,49.34
2023-01-08T16:17:20.570Z,49.35
2023-01-08T16:19:46.882Z,49.31
2023-01-08T16:22:13.180Z,49.43
2023-01-08T16:24:40.631Z,49.34
2023-01-08T16:27:07.071Z,49.50
2023-01-08T16:29:34.920Z,49.51
2023-01-08T16:32:01.224Z,49.55
2023-01-08T16:34:27.507Z,49.38
2023-01-08T16:36:53.829Z,49.51
2023-01-08T16:39:20.160Z,49.38
2023-01-08T16:41:47.212Z,49.43
2023-01-08T16:44:18.223Z,49.38
2023-01-08T16:46:45.824Z,49.55
2023-01-08T16:49:12.135Z,49.62
2023-01-08T16:51:38.471Z,49.36
2023-01-08T16:54:04.791Z,49.67
2023-01-08T16:56:31.173Z,49.38
2023-01-08T16:58:57.889Z,49.26
2023-01-08T17:01:24.498Z,49.33
2023-01-08T17:03:52.329Z,49.11
2023-01-08T17:06:18.749Z,49.47
2023-01-08T17:08:45.053Z,49.48
2023-01-08T17:11:12.105Z,49.32
2023-01-08T17:13:38.459Z,49.12
2023-01-08T17:16:05.389Z,49.41
2023-01-08T17:18:31.773Z,49.33
2023-01-08T17:20:59.498Z,49.40
2023-01-08T17:23:25.761Z,49.21
2023-01-08T17:25:52.075Z,49.16
2023-01-08T17:28:18.384Z,49.15
2023-01-08T17:30:44.689Z,49.53
2023-01-08T17:33:12.845Z,49.32
2023-01-08T17:35:40.904Z,49.28
2023-01-08T17:38:08.496Z,49.16
2023-01-08T17:40:34.803Z,49.34
2023-01-08T17:43:01.129Z,49.27
2023-01-08T17:45:27.502Z,49.16
2023-01-08T17:47:53.880Z,49.43
2023-01-08T17:50:20.175Z,49.14
2023-01-08T17:52:46.480Z,49.48
2023-01-08T17:55:14.103Z,49.33
2023-01-08T17:57:40.409Z,49.35
2023-01-08T18:00:07.277Z,49.11
2023-01-08T18:02:33.716Z,49.09
2023-01-08T18:05:00.238Z,49.11
2023-01-08T18:07:26.592Z,49.26
2023-01-08T18:09:52.903Z,49.22
2023-01-08T18:12:20.502Z,48.90
2023-01-08T18:14:46.810Z,49.21
2023-01-08T18:17:13.128Z,49.00
2023-01-08T18:19:40.405Z,48.88
2023-01-08T18:22:06.697Z,49.11
2023-01-08T18:24:33.045Z,49.08
2023-01-08T18:26:59.374Z,48.99
2023-01-08T18:29:26.955Z,49.02
2023-01-08T18:31:53.281Z,48.99
2023-01-08T18:34:19.622Z,49.10
2023-01-08T18:36:46.098Z,48.84
2023-01-08T18:39:12.729Z,48.69
2023-01-08T18:41:39.085Z,48.79
2023-01-08T18:44:06.411Z,49.06
2023-01-08T18:46:34.128Z,49.04
2023-01-08T18:49:00.477Z,48.82
2023-01-08T18:51:28.941Z,48.80
2023-01-08T18:53:55.311Z,48.89
2023-01-08T18:56:23.654Z,48.86
2023-01-08T18:58:49.982Z,48.92
2023-01-08T19:01:16.454Z,48.86
2023-01-08T19:03:44.079Z,48.70
2023-01-08T19:06:11.807Z,48.77
2023-01-08T19:08:38.342Z,48.77
2023-01-08T19:11:04.793Z,48.83
2023-01-08T19:13:31.103Z,48.69
2023-01-08T19:15:57.663Z,48.61
2023-01-08T19:18:24.025Z,48.85
2023-01-08T19:20:51.640Z,48.65
2023-01-08T19:23:17.944Z,48.69
2023-01-08T19:25:44.205Z,48.65
2023-01-08T19:28:10.561Z,48.83
2023-01-08T19:30:36.848Z,48.50
2023-01-08T19:33:03.488Z,48.59
2023-01-08T19:35:29.870Z,48.73
2023-01-08T19:37:57.479Z,48.81
2023-01-08T19:40:24.011Z,48.65
2023-01-08T19:42:50.341Z,48.63
2023-01-08T19:45:16.681Z,48.67
2023-01-08T19:47:43.004Z,48.66
2023-01-08T19:50:09.855Z,48.50
2023-01-08T19:52:36.186Z,48.55
2023-01-08T19:55:03.967Z,48.49
2023-01-08T19:57:30.278Z,48.34
2023-01-08T19:59:56.703Z,48.17
2023-01-08T20:02:23.250Z,48.62
2023-01-08T20:04:49.606Z,48.43
2023-01-08T20:07:16.016Z,48.44
2023-01-08T20:09:42.664Z,48.52
2023-01-08T20:12:10.844Z,48.52
2023-01-08T20:14:37.131Z,48.21
2023-01-08T20:17:03.466Z,48.44
2023-01-08T20:19:29.788Z,48.54
2023-01-08T20:21:56.141Z,48.34
2023-01-08T20:24:22.477Z,48.34
2023-01-08T20:26:48.785Z,48.23
2023-01-08T20:29:16.663Z,48.34
2023-01-08T20:31:43.285Z,48.28
2023-01-08T20:34:11.047Z,48.19
2023-01-08T20:36:37.745Z,48.27
2023-01-08T20:39:06.948Z,48.11
2023-01-08T20:41:33.282Z,48.46
2023-01-08T20:44:01.304Z,48.13
2023-01-08T20:46:29.269Z,48.18
2023-01-08T20:48:55.632Z,48.36
2023-01-08T20:51:22.000Z,48.26
2023-01-08T20:53:48.360Z,48.25
2023-01-08T20:56:15.437Z,48.13
2023-01-08T20:58:42.801Z,48.23
2023-01-08T21:01:10.377Z,48.12
2023-01-08T21:03:38.620Z,48.09
2023-01-08T21:06:05.737Z,48.14
2023-01-08T21:08:32.020Z,48.09
2023-01-08T21:10:58.417Z,48.35
2023-01-08T21:13:24.758Z,48.16
2023-01-08T21:15:51.319Z,47.89
2023-01-08T21:18:17.602Z,47.93
2023-01-08T21:20:45.212Z,48.03
2023-01-08T21:23:11.512Z,48.23
2023-01-08T21:25:38.283Z,48.03
2023-01-08T21:28:04.565Z,47.98
2023-01-08T21:30:30.877Z,47.94
2023-01-08T21:32:57.180Z,48.14
2023-01-08T21:35:23.481Z,48.06
2023-01-08T21:37:51.086Z,48.11
2023-01-08T21:40:17.726Z,48.12
2023-01-08T21:42:44.005Z,47.89
2023-01-08T21:45:10.362Z,48.10
2023-01-08T21:47:36.912Z,48.00
2023-01-08T21:50:03.279Z,48.12
2023-01-08T21:52:29.597Z,48.06
2023-01-08T21:54:57.204Z,48.15
2023-01-08T21:57:23.645Z,48.25
2023-01-08T21:59:50.443Z,47.96
2023-01-08T22:02:17.793Z,48.02
2023-01-08T22:04:44.615Z,47.87
2023-01-08T22:07:11.054Z,47.84
2023-01-08T22:09:37.362Z,47.85
2023-01-08T22:12:05.161Z,47.93
2023-01-08T22:14:31.487Z,47.75
2023-01-08T22:16:57.807Z,47.87
2023-01-08T22:19:24.455Z,47.92
2023-01-08T22:21:50.731Z,47.64
2023-01-08T22:24:17.026Z,47.67
2023-01-08T22:26:43.339Z,47.67
2023-01-08T22:29:10.952Z,47.85
2023-01-08T22:31:37.299Z,47.72
2023-01-08T22:34:03.630Z,47.94
2023-01-08T22:36:29.982Z,47.70
2023-01-08T22:38:56.324Z,47.92
2023-01-08T22:41:23.833Z,47.89
2023-01-08T22:43:52.327Z,47.72
2023-01-08T22:46:19.941Z,47.86
2023-01-08T22:48:46.265Z,47.99
2023-01-08T22:51:12.786Z,47.59
2023-01-08T22:53:39.087Z,47.62
2023-01-08T22:56:06.833Z,47.62
2023-01-08T22:58:33.140Z,47.82
2023-01-08T23:00:59.436Z,47.97
2023-01-08T23:03:29.210Z,47.77
2023-01-08T23:06:00.239Z,47.71
2023-01-08T23:08:26.519Z,47.80
2023-01-08T23:10:52.901Z,47.79
2023-01-08T23:13:19.200Z,47.84
2023-01-08T23:15:45.507Z,47.82
2023-01-08T23:18:11.831Z,47.68
2023-01-08T23:20:39.440Z,47.85
2023-01-08T23:23:05.931Z,47.67
2023-01-08T23:25:32.932Z,47.71
2023-01-08T23:27:59.218Z,47.85
2023-01-08T23:30:25.563Z,47.73
2023-01-08T23:32:51.863Z,47.68
2023-01-08T23:35:18.182Z,47.76
2023-01-08T23:37:45.847Z,47.91
2023-01-08T23:40:12.353Z,47.91
2023-01-08T23:42:38.686Z,47.90
2023-01-08T23:45:05.460Z,47.83
2023-01-08T23:47:31.793Z,47.83
2023-01-08T23:49:58.101Z,47.70
2023-01-08T23:52:24.459Z,47.96
2023-01-08T23:54:52.264Z,47.79
2023-01-08T23:57:18.549Z,47.70
2023-01-08T23:59:44.882Z,47.70
